sensor_id;sensor_type;location;lat;lon;timestamp;temperature;humidity
9193;DHT22;4631;49.296;10.560;2023-05-29T00:00:21;16.10;99.90
9193;DHT22;4631;49.296;10.560;2023-05-29T00:02:47;16.10;99.90
9193;DHT22;4631;49.296;10.560;2023-05-29T00:05:14;16.00;99.90
9193;DHT22;4631;49.296;10.560;2023-05-29T00:07:41;15.90;99.90
9193;DHT22;4631;49.296;10.560;2023-05-29T00:10:09;15.90;99.90
9193;DHT22;4631;49.296;10.560;2023-05-29T00:12:36;15.80;99.90
9193;DHT22;4631;49.296;10.560;2023-05-29T00:15:05;15.80;99.90
9193;DHT22;4631;49.296;10.560;2023-05-29T00:17:31;15.70;99.90
9193;DHT22;4631;49.296;10.560;2023-05-29T00:19:58;15.70;99.90
9193;DHT22;4631;49.296;10.560;2023-05-29T00:22:26;15.60;99.90
9193;DHT22;4631;49.296;10.560;2023-05-29T00:24:53;15.50;99.90
9193;DHT22;4631;49.296;10.560;2023-05-29T00:27:19;15.50;99.90
9193;DHT22;4631;49.296;10.560;2023-05-29T00:29:46;15.40;99.90
9193;DHT22;4631;49.296;10.560;2023-05-29T00:32:14;15.40;99.90
9193;DHT22;4631;49.296;10.560;2023-05-29T00:34:41;15.30;99.90
9193;DHT22;4631;49.296;10.560;2023-05-29T00:37:07;15.30;99.90
9193;DHT22;4631;49.296;10.560;2023-05-29T00:39:34;15.20;99.90
9193;DHT22;4631;49.296;10.560;2023-05-29T00:42:00;15.10;99.90
9193;DHT22;4631;49.296;10.560;2023-05-29T00:44:27;15.10;99.90
9193;DHT22;4631;49.296;10.560;2023-05-29T00:46:54;15.00;99.90
9193;DHT22;4631;49.296;10.560;2023-05-29T00:49:22;15.10;99.90
9193;DHT22;4631;49.296;10.560;2023-05-29T00:51:49;15.00;99.90
9193;DHT22;4631;49.296;10.560;2023-05-29T00:54:20;15.00;99.90
9193;DHT22;4631;49.296;10.560;2023-05-29T00:56:50;15.00;99.90
9193;DHT22;4631;49.296;10.560;2023-05-29T00:59:16;14.90;99.90
9193;DHT22;4631;49.296;10.560;2023-05-29T01:01:44;14.90;99.90
9193;DHT22;4631;49.296;10.560;2023-05-29T01:04:11;14.80;99.90
9193;DHT22;4631;49.296;10.560;2023-05-29T01:06:40;14.80;99.90
9193;DHT22;4631;49.296;10.560;2023-05-29T01:09:07;14.70;99.90
9193;DHT22;4631;49.296;10.560;2023-05-29T01:11:35;14.60;99.90
9193;DHT22;4631;49.296;10.560;2023-05-29T01:14:03;14.60;99.90
9193;DHT22;4631;49.296;10.560;2023-05-29T01:16:33;14.50;99.90
9193;DHT22;4631;49.296;10.560;2023-05-29T01:19:05;14.50;99.90
9193;DHT22;4631;49.296;10.560;2023-05-29T01:21:42;14.50;99.90
9193;DHT22;4631;49.296;10.560;2023-05-29T01:24:17;14.50;99.90
9193;DHT22;4631;49.296;10.560;2023-05-29T01:26:49;14.40;99.90
9193;DHT22;4631;49.296;10.560;2023-05-29T01:29:18;14.40;99.90
9193;DHT22;4631;49.296;10.560;2023-05-29T01:31:45;14.40;99.90
9193;DHT22;4631;49.296;10.560;2023-05-29T01:34:12;14.30;99.90
9193;DHT22;4631;49.296;10.560;2023-05-29T01:36:38;14.20;99.90
9193;DHT22;4631;49.296;10.560;2023-05-29T01:39:05;14.10;99.90
9193;DHT22;4631;49.296;10.560;2023-05-29T01:41:33;14.10;99.90
9193;DHT22;4631;49.296;10.560;2023-05-29T01:44:02;14.00;99.90
9193;DHT22;4631;49.296;10.560;2023-05-29T01:46:30;14.00;99.90
9193;DHT22;4631;49.296;10.560;2023-05-29T01:48:56;14.00;99.90
9193;DHT22;4631;49.296;10.560;2023-05-29T01:51:23;14.00;99.90
9193;DHT22;4631;49.296;10.560;2023-05-29T01:53:50;14.00;99.90
9193;DHT22;4631;49.296;10.560;2023-05-29T01:56:20;13.90;99.90
9193;DHT22;4631;49.296;10.560;2023-05-29T01:58:48;13.90;99.90
9193;DHT22;4631;49.296;10.560;2023-05-29T02:01:16;13.80;99.90
9193;DHT22;4631;49.296;10.560;2023-05-29T02:03:43;13.70;99.90
9193;DHT22;4631;49.296;10.560;2023-05-29T02:06:10;13.60;99.90
9193;DHT22;4631;49.296;10.560;2023-05-29T02:08:37;13.60;99.90
9193;DHT22;4631;49.296;10.560;2023-05-29T02:11:03;13.60;99.90
9193;DHT22;4631;49.296;10.560;2023-05-29T02:13:30;13.50;99.90
9193;DHT22;4631;49.296;10.560;2023-05-29T02:15:57;13.50;99.90
9193;DHT22;4631;49.296;10.560;2023-05-29T02:18:25;13.40;99.90
9193;DHT22;4631;49.296;10.560;2023-05-29T02:20:52;13.40;99.90
9193;DHT22;4631;49.296;10.560;2023-05-29T02:23:18;13.40;99.90
9193;DHT22;4631;49.296;10.560;2023-05-29T02:25:45;13.30;99.90
9193;DHT22;4631;49.296;10.560;2023-05-29T02:28:12;13.30;99.90
9193;DHT22;4631;49.296;10.560;2023-05-29T02:30:38;13.30;99.90
9193;DHT22;4631;49.296;10.560;2023-05-29T02:33:05;13.20;99.90
9193;DHT22;4631;49.296;10.560;2023-05-29T02:35:33;13.20;99.90
9193;DHT22;4631;49.296;10.560;2023-05-29T02:38:00;13.20;99.90
9193;DHT22;4631;49.296;10.560;2023-05-29T02:40:27;13.10;99.90
9193;DHT22;4631;49.296;10.560;2023-05-29T02:42:53;13.10;99.90
9193;DHT22;4631;49.296;10.560;2023-05-29T02:45:20;13.10;99.90
9193;DHT22;4631;49.296;10.560;2023-05-29T02:47:47;13.00;99.90
9193;DHT22;4631;49.296;10.560;2023-05-29T02:50:13;13.10;99.90
9193;DHT22;4631;49.296;10.560;2023-05-29T02:52:42;12.90;99.90
9193;DHT22;4631;49.296;10.560;2023-05-29T02:55:08;12.90;99.90
9193;DHT22;4631;49.296;10.560;2023-05-29T02:57:35;12.90;99.90
9193;DHT22;4631;49.296;10.560;2023-05-29T03:00:02;12.90;99.90
9193;DHT22;4631;49.296;10.560;2023-05-29T03:02:31;12.80;99.90
9193;DHT22;4631;49.296;10.560;2023-05-29T03:04:58;12.80;99.90
9193;DHT22;4631;49.296;10.560;2023-05-29T03:07:25;12.70;99.90
9193;DHT22;4631;49.296;10.560;2023-05-29T03:09:53;12.60;99.90
9193;DHT22;4631;49.296;10.560;2023-05-29T03:12:20;12.60;99.90
9193;DHT22;4631;49.296;10.560;2023-05-29T03:14:47;12.50;99.90
9193;DHT22;4631;49.296;10.560;2023-05-29T03:17:13;12.50;99.90
9193;DHT22;4631;49.296;10.560;2023-05-29T03:19:40;12.40;99.90
9193;DHT22;4631;49.296;10.560;2023-05-29T03:22:07;12.40;99.90
9193;DHT22;4631;49.296;10.560;2023-05-29T03:24:33;12.30;99.90
9193;DHT22;4631;49.296;10.560;2023-05-29T03:27:02;12.30;99.90
9193;DHT22;4631;49.296;10.560;2023-05-29T03:29:31;12.30;99.90
9193;DHT22;4631;49.296;10.560;2023-05-29T03:31:57;12.30;99.90
9193;DHT22;4631;49.296;10.560;2023-05-29T03:34:25;12.20;99.90
9193;DHT22;4631;49.296;10.560;2023-05-29T03:36:53;12.30;99.90
9193;DHT22;4631;49.296;10.560;2023-05-29T03:39:19;12.20;99.90
9193;DHT22;4631;49.296;10.560;2023-05-29T03:41:46;12.20;99.90
9193;DHT22;4631;49.296;10.560;2023-05-29T03:44:15;12.20;99.90
9193;DHT22;4631;49.296;10.560;2023-05-29T03:46:42;12.10;99.90
9193;DHT22;4631;49.296;10.560;2023-05-29T03:49:08;12.00;99.90
9193;DHT22;4631;49.296;10.560;2023-05-29T03:51:35;12.00;99.90
9193;DHT22;4631;49.296;10.560;2023-05-29T03:54:01;12.00;99.90
9193;DHT22;4631;49.296;10.560;2023-05-29T03:56:28;12.00;99.90
9193;DHT22;4631;49.296;10.560;2023-05-29T03:58:55;11.90;99.90
9193;DHT22;4631;49.296;10.560;2023-05-29T04:01:23;11.90;99.90
9193;DHT22;4631;49.296;10.560;2023-05-29T04:03:51;11.90;99.90
9193;DHT22;4631;49.296;10.560;2023-05-29T04:06:17;11.90;99.90
9193;DHT22;4631;49.296;10.560;2023-05-29T04:08:44;11.80;99.90
9193;DHT22;4631;49.296;10.560;2023-05-29T04:11:11;11.70;99.90
9193;DHT22;4631;49.296;10.560;2023-05-29T04:13:41;11.60;99.90
9193;DHT22;4631;49.296;10.560;2023-05-29T04:16:07;11.60;99.90
9193;DHT22;4631;49.296;10.560;2023-05-29T04:18:35;11.60;99.90
9193;DHT22;4631;49.296;10.560;2023-05-29T04:21:02;11.60;99.90
9193;DHT22;4631;49.296;10.560;2023-05-29T04:23:29;11.70;99.90
9193;DHT22;4631;49.296;10.560;2023-05-29T04:25:55;11.70;99.90
9193;DHT22;4631;49.296;10.560;2023-05-29T04:28:22;11.70;99.90
9193;DHT22;4631;49.296;10.560;2023-05-29T04:30:49;11.70;99.90
9193;DHT22;4631;49.296;10.560;2023-05-29T04:33:17;11.80;99.90
9193;DHT22;4631;49.296;10.560;2023-05-29T04:35:47;11.80;99.90
9193;DHT22;4631;49.296;10.560;2023-05-29T04:38:14;11.90;99.90
9193;DHT22;4631;49.296;10.560;2023-05-29T04:40:41;12.00;99.90
9193;DHT22;4631;49.296;10.560;2023-05-29T04:43:08;12.00;99.90
9193;DHT22;4631;49.296;10.560;2023-05-29T04:45:35;12.10;99.90
9193;DHT22;4631;49.296;10.560;2023-05-29T04:48:03;12.20;99.90
9193;DHT22;4631;49.296;10.560;2023-05-29T04:50:29;12.20;99.90
9193;DHT22;4631;49.296;10.560;2023-05-29T04:52:58;12.30;99.90
9193;DHT22;4631;49.296;10.560;2023-05-29T04:55:25;12.40;99.90
9193;DHT22;4631;49.296;10.560;2023-05-29T04:57:51;12.40;99.90
9193;DHT22;4631;49.296;10.560;2023-05-29T05:00:18;12.50;99.90
9193;DHT22;4631;49.296;10.560;2023-05-29T05:02:45;12.60;99.90
9193;DHT22;4631;49.296;10.560;2023-05-29T05:05:11;12.70;99.90
9193;DHT22;4631;49.296;10.560;2023-05-29T05:07:38;12.80;99.90
9193;DHT22;4631;49.296;10.560;2023-05-29T05:10:07;12.90;99.90
9193;DHT22;4631;49.296;10.560;2023-05-29T05:12:34;12.90;99.90
9193;DHT22;4631;49.296;10.560;2023-05-29T05:15:00;13.00;99.90
9193;DHT22;4631;49.296;10.560;2023-05-29T05:17:27;13.10;99.90
9193;DHT22;4631;49.296;10.560;2023-05-29T05:19:53;13.20;99.90
9193;DHT22;4631;49.296;10.560;2023-05-29T05:22:20;13.20;99.90
9193;DHT22;4631;49.296;10.560;2023-05-29T05:24:47;13.40;99.90
9193;DHT22;4631;49.296;10.560;2023-05-29T05:27:15;13.50;99.90
9193;DHT22;4631;49.296;10.560;2023-05-29T05:29:41;13.50;99.90
9193;DHT22;4631;49.296;10.560;2023-05-29T05:32:08;13.70;99.90
9193;DHT22;4631;49.296;10.560;2023-05-29T05:34:34;13.80;99.90
9193;DHT22;4631;49.296;10.560;2023-05-29T05:37:01;13.90;99.90
9193;DHT22;4631;49.296;10.560;2023-05-29T05:39:28;14.00;99.90
9193;DHT22;4631;49.296;10.560;2023-05-29T05:41:54;14.20;99.90
9193;DHT22;4631;49.296;10.560;2023-05-29T05:44:22;14.40;99.90
9193;DHT22;4631;49.296;10.560;2023-05-29T05:46:49;14.50;99.90
9193;DHT22;4631;49.296;10.560;2023-05-29T05:49:15;14.60;99.90
9193;DHT22;4631;49.296;10.560;2023-05-29T05:51:42;14.70;99.90
9193;DHT22;4631;49.296;10.560;2023-05-29T05:54:09;14.90;99.90
9193;DHT22;4631;49.296;10.560;2023-05-29T05:56:35;15.00;99.90
9193;DHT22;4631;49.296;10.560;2023-05-29T05:59:02;15.10;99.90
9193;DHT22;4631;49.296;10.560;2023-05-29T06:01:30;15.20;99.90
9193;DHT22;4631;49.296;10.560;2023-05-29T06:03:58;15.40;99.90
9193;DHT22;4631;49.296;10.560;2023-05-29T06:06:25;15.50;99.90
9193;DHT22;4631;49.296;10.560;2023-05-29T06:08:51;15.60;99.90
9193;DHT22;4631;49.296;10.560;2023-05-29T06:11:18;15.70;99.90
9193;DHT22;4631;49.296;10.560;2023-05-29T06:13:45;15.70;99.90
9193;DHT22;4631;49.296;10.560;2023-05-29T06:16:11;15.70;99.90
9193;DHT22;4631;49.296;10.560;2023-05-29T06:18:39;15.70;99.90
9193;DHT22;4631;49.296;10.560;2023-05-29T06:21:06;15.80;99.90
9193;DHT22;4631;49.296;10.560;2023-05-29T06:23:34;15.90;99.90
9193;DHT22;4631;49.296;10.560;2023-05-29T06:26:01;15.90;99.90
9193;DHT22;4631;49.296;10.560;2023-05-29T06:28:28;16.00;99.90
9193;DHT22;4631;49.296;10.560;2023-05-29T06:30:55;16.00;99.90
9193;DHT22;4631;49.296;10.560;2023-05-29T06:33:22;16.10;99.90
9193;DHT22;4631;49.296;10.560;2023-05-29T06:35:50;16.20;99.90
9193;DHT22;4631;49.296;10.560;2023-05-29T06:38:17;16.20;99.90
9193;DHT22;4631;49.296;10.560;2023-05-29T06:40:44;16.30;99.90
9193;DHT22;4631;49.296;10.560;2023-05-29T06:43:10;16.40;99.90
9193;DHT22;4631;49.296;10.560;2023-05-29T06:45:37;16.40;99.90
9193;DHT22;4631;49.296;10.560;2023-05-29T06:48:04;16.50;99.90
9193;DHT22;4631;49.296;10.560;2023-05-29T06:50:31;16.60;99.90
9193;DHT22;4631;49.296;10.560;2023-05-29T06:53:00;16.70;99.90
9193;DHT22;4631;49.296;10.560;2023-05-29T06:55:27;16.80;99.90
9193;DHT22;4631;49.296;10.560;2023-05-29T06:57:53;16.90;99.90
9193;DHT22;4631;49.296;10.560;2023-05-29T07:00:20;16.90;99.90
9193;DHT22;4631;49.296;10.560;2023-05-29T07:02:47;17.00;99.90
9193;DHT22;4631;49.296;10.560;2023-05-29T07:05:13;17.10;99.90
9193;DHT22;4631;49.296;10.560;2023-05-29T07:07:40;17.10;99.90
9193;DHT22;4631;49.296;10.560;2023-05-29T07:10:08;17.20;99.90
9193;DHT22;4631;49.296;10.560;2023-05-29T07:12:35;17.30;99.90
9193;DHT22;4631;49.296;10.560;2023-05-29T07:15:01;17.30;99.90
9193;DHT22;4631;49.296;10.560;2023-05-29T07:17:28;17.40;99.90
9193;DHT22;4631;49.296;10.560;2023-05-29T07:19:55;17.50;99.90
9193;DHT22;4631;49.296;10.560;2023-05-29T07:22:22;17.60;99.90
9193;DHT22;4631;49.296;10.560;2023-05-29T07:24:48;17.60;99.90
9193;DHT22;4631;49.296;10.560;2023-05-29T07:27:16;17.70;99.90
9193;DHT22;4631;49.296;10.560;2023-05-29T07:29:43;17.80;99.90
9193;DHT22;4631;49.296;10.560;2023-05-29T07:32:09;17.80;99.90
9193;DHT22;4631;49.296;10.560;2023-05-29T07:34:36;17.80;99.90
9193;DHT22;4631;49.296;10.560;2023-05-29T07:37:03;17.90;99.90
9193;DHT22;4631;49.296;10.560;2023-05-29T07:39:30;18.00;99.90
9193;DHT22;4631;49.296;10.560;2023-05-29T07:41:57;18.10;99.90
9193;DHT22;4631;49.296;10.560;2023-05-29T07:44:25;18.10;99.90
9193;DHT22;4631;49.296;10.560;2023-05-29T07:46:51;18.20;99.90
9193;DHT22;4631;49.296;10.560;2023-05-29T07:49:19;18.30;99.90
9193;DHT22;4631;49.296;10.560;2023-05-29T07:51:46;18.30;99.90
9193;DHT22;4631;49.296;10.560;2023-05-29T07:54:12;18.40;99.90
9193;DHT22;4631;49.296;10.560;2023-05-29T07:56:42;18.50;99.90
9193;DHT22;4631;49.296;10.560;2023-05-29T07:59:09;18.60;99.90
9193;DHT22;4631;49.296;10.560;2023-05-29T08:01:38;18.70;99.90
9193;DHT22;4631;49.296;10.560;2023-05-29T08:04:05;18.70;99.90
9193;DHT22;4631;49.296;10.560;2023-05-29T08:06:32;18.80;99.90
9193;DHT22;4631;49.296;10.560;2023-05-29T08:09:05;18.90;99.90
9193;DHT22;4631;49.296;10.560;2023-05-29T08:11:33;19.00;99.90
9193;DHT22;4631;49.296;10.560;2023-05-29T08:14:04;19.10;99.90
9193;DHT22;4631;49.296;10.560;2023-05-29T08:16:31;19.10;99.90
9193;DHT22;4631;49.296;10.560;2023-05-29T08:18:59;19.20;99.90
9193;DHT22;4631;49.296;10.560;2023-05-29T08:21:25;19.30;99.90
9193;DHT22;4631;49.296;10.560;2023-05-29T08:23:52;19.40;99.90
9193;DHT22;4631;49.296;10.560;2023-05-29T08:26:19;19.40;99.90
9193;DHT22;4631;49.296;10.560;2023-05-29T08:28:45;19.50;99.90
9193;DHT22;4631;49.296;10.560;2023-05-29T08:31:12;19.60;99.90
9193;DHT22;4631;49.296;10.560;2023-05-29T08:33:39;19.70;99.90
9193;DHT22;4631;49.296;10.560;2023-05-29T08:36:07;19.70;99.90
9193;DHT22;4631;49.296;10.560;2023-05-29T08:38:34;19.80;99.90
9193;DHT22;4631;49.296;10.560;2023-05-29T08:41:00;19.80;99.90
9193;DHT22;4631;49.296;10.560;2023-05-29T08:43:33;19.90;99.90
9193;DHT22;4631;49.296;10.560;2023-05-29T08:46:01;19.90;99.90
9193;DHT22;4631;49.296;10.560;2023-05-29T08:48:28;20.00;99.90
9193;DHT22;4631;49.296;10.560;2023-05-29T08:50:55;20.10;99.90
9193;DHT22;4631;49.296;10.560;2023-05-29T08:53:23;20.10;99.90
9193;DHT22;4631;49.296;10.560;2023-05-29T08:55:50;20.20;99.90
9193;DHT22;4631;49.296;10.560;2023-05-29T08:58:17;20.20;99.90
9193;DHT22;4631;49.296;10.560;2023-05-29T09:00:45;20.20;99.90
9193;DHT22;4631;49.296;10.560;2023-05-29T09:03:12;20.20;99.90
9193;DHT22;4631;49.296;10.560;2023-05-29T09:05:38;20.20;98.90
9193;DHT22;4631;49.296;10.560;2023-05-29T09:08:05;20.30;99.50
9193;DHT22;4631;49.296;10.560;2023-05-29T09:10:34;20.30;99.90
9193;DHT22;4631;49.296;10.560;2023-05-29T09:13:00;20.40;99.90
9193;DHT22;4631;49.296;10.560;2023-05-29T09:15:27;20.50;99.90
9193;DHT22;4631;49.296;10.560;2023-05-29T09:17:54;20.60;99.90
9193;DHT22;4631;49.296;10.560;2023-05-29T09:20:22;20.70;99.60
9193;DHT22;4631;49.296;10.560;2023-05-29T09:22:53;20.70;99.60
9193;DHT22;4631;49.296;10.560;2023-05-29T09:25:20;20.70;99.90
9193;DHT22;4631;49.296;10.560;2023-05-29T09:27:52;20.80;99.90
9193;DHT22;4631;49.296;10.560;2023-05-29T09:30:35;20.90;99.60
9193;DHT22;4631;49.296;10.560;2023-05-29T09:33:02;20.90;99.90
9193;DHT22;4631;49.296;10.560;2023-05-29T09:35:33;20.90;99.90
9193;DHT22;4631;49.296;10.560;2023-05-29T09:37:59;21.00;99.90
9193;DHT22;4631;49.296;10.560;2023-05-29T09:40:26;21.00;99.50
9193;DHT22;4631;49.296;10.560;2023-05-29T09:42:54;21.10;99.10
9193;DHT22;4631;49.296;10.560;2023-05-29T09:45:21;21.20;99.50
9193;DHT22;4631;49.296;10.560;2023-05-29T09:47:49;21.30;99.70
9193;DHT22;4631;49.296;10.560;2023-05-29T09:50:19;21.30;98.90
9193;DHT22;4631;49.296;10.560;2023-05-29T09:52:46;21.40;99.40
9193;DHT22;4631;49.296;10.560;2023-05-29T09:55:19;21.40;99.30
9193;DHT22;4631;49.296;10.560;2023-05-29T09:57:47;21.50;99.90
9193;DHT22;4631;49.296;10.560;2023-05-29T10:00:15;21.60;99.90
9193;DHT22;4631;49.296;10.560;2023-05-29T10:02:43;21.70;99.90
9193;DHT22;4631;49.296;10.560;2023-05-29T10:05:10;21.80;99.70
9193;DHT22;4631;49.296;10.560;2023-05-29T10:07:44;21.80;99.50
9193;DHT22;4631;49.296;10.560;2023-05-29T10:10:14;21.80;99.70
9193;DHT22;4631;49.296;10.560;2023-05-29T10:12:49;21.90;98.40
9193;DHT22;4631;49.296;10.560;2023-05-29T10:15:30;22.00;99.10
9193;DHT22;4631;49.296;10.560;2023-05-29T10:17:57;22.10;99.10
9193;DHT22;4631;49.296;10.560;2023-05-29T10:20:25;22.10;99.30
9193;DHT22;4631;49.296;10.560;2023-05-29T10:22:59;22.20;99.20
9193;DHT22;4631;49.296;10.560;2023-05-29T10:25:33;22.30;99.40
9193;DHT22;4631;49.296;10.560;2023-05-29T10:28:04;22.40;99.10
9193;DHT22;4631;49.296;10.560;2023-05-29T10:30:35;22.50;98.00
9193;DHT22;4631;49.296;10.560;2023-05-29T10:33:08;22.60;97.90
9193;DHT22;4631;49.296;10.560;2023-05-29T10:35:40;22.70;97.70
9193;DHT22;4631;49.296;10.560;2023-05-29T10:38:10;22.70;95.80
9193;DHT22;4631;49.296;10.560;2023-05-29T10:40:37;22.70;95.50
9193;DHT22;4631;49.296;10.560;2023-05-29T10:43:04;22.70;96.30
9193;DHT22;4631;49.296;10.560;2023-05-29T10:45:50;22.80;95.80
9193;DHT22;4631;49.296;10.560;2023-05-29T10:48:36;22.90;94.60
9193;DHT22;4631;49.296;10.560;2023-05-29T10:51:04;23.00;93.70
9193;DHT22;4631;49.296;10.560;2023-05-29T10:53:31;23.00;92.40
9193;DHT22;4631;49.296;10.560;2023-05-29T10:55:58;23.20;93.70
9193;DHT22;4631;49.296;10.560;2023-05-29T10:58:26;23.30;93.10
9193;DHT22;4631;49.296;10.560;2023-05-29T11:00:54;23.20;92.90
9193;DHT22;4631;49.296;10.560;2023-05-29T11:03:24;23.30;93.30
9193;DHT22;4631;49.296;10.560;2023-05-29T11:05:56;23.40;93.50
9193;DHT22;4631;49.296;10.560;2023-05-29T11:08:28;23.50;92.70
9193;DHT22;4631;49.296;10.560;2023-05-29T11:10:56;23.60;92.80
9193;DHT22;4631;49.296;10.560;2023-05-29T11:13:24;23.80;92.50
9193;DHT22;4631;49.296;10.560;2023-05-29T11:18:43;24.30;92.30
9193;DHT22;4631;49.296;10.560;2023-05-29T11:21:30;24.40;92.10
9193;DHT22;4631;49.296;10.560;2023-05-29T11:23:58;24.30;91.20
9193;DHT22;4631;49.296;10.560;2023-05-29T11:26:29;24.40;92.10
9193;DHT22;4631;49.296;10.560;2023-05-29T11:28:59;24.50;91.90
9193;DHT22;4631;49.296;10.560;2023-05-29T11:31:27;24.60;90.90
9193;DHT22;4631;49.296;10.560;2023-05-29T11:33:58;24.80;90.50
9193;DHT22;4631;49.296;10.560;2023-05-29T11:36:25;24.80;89.10
9193;DHT22;4631;49.296;10.560;2023-05-29T11:38:52;24.70;89.90
9193;DHT22;4631;49.296;10.560;2023-05-29T11:41:19;24.80;90.60
9193;DHT22;4631;49.296;10.560;2023-05-29T11:43:55;24.90;90.30
9193;DHT22;4631;49.296;10.560;2023-05-29T11:46:22;25.10;91.50
9193;DHT22;4631;49.296;10.560;2023-05-29T11:48:48;25.30;92.50
9193;DHT22;4631;49.296;10.560;2023-05-29T11:51:17;25.60;91.40
9193;DHT22;4631;49.296;10.560;2023-05-29T11:53:46;25.70;91.30
9193;DHT22;4631;49.296;10.560;2023-05-29T11:56:13;25.60;90.10
9193;DHT22;4631;49.296;10.560;2023-05-29T11:58:40;25.70;89.50
9193;DHT22;4631;49.296;10.560;2023-05-29T12:01:07;25.70;90.50
9193;DHT22;4631;49.296;10.560;2023-05-29T12:03:37;25.70;90.00
9193;DHT22;4631;49.296;10.560;2023-05-29T12:06:04;25.80;90.10
9193;DHT22;4631;49.296;10.560;2023-05-29T12:08:33;25.80;90.70
9193;DHT22;4631;49.296;10.560;2023-05-29T12:11:00;26.00;88.40
9193;DHT22;4631;49.296;10.560;2023-05-29T12:13:28;26.00;89.20
9193;DHT22;4631;49.296;10.560;2023-05-29T12:15:56;25.90;88.60
9193;DHT22;4631;49.296;10.560;2023-05-29T12:18:23;26.10;90.70
9193;DHT22;4631;49.296;10.560;2023-05-29T12:20:49;26.20;89.00
9193;DHT22;4631;49.296;10.560;2023-05-29T12:23:17;26.30;87.80
9193;DHT22;4631;49.296;10.560;2023-05-29T12:25:47;26.30;86.00
9193;DHT22;4631;49.296;10.560;2023-05-29T12:28:15;26.30;87.00
9193;DHT22;4631;49.296;10.560;2023-05-29T12:30:42;26.50;87.70
9193;DHT22;4631;49.296;10.560;2023-05-29T12:33:16;26.60;85.30
9193;DHT22;4631;49.296;10.560;2023-05-29T12:38:46;26.40;85.60
9193;DHT22;4631;49.296;10.560;2023-05-29T12:41:22;26.20;83.70
9193;DHT22;4631;49.296;10.560;2023-05-29T12:43:49;26.30;86.10
9193;DHT22;4631;49.296;10.560;2023-05-29T12:46:17;26.50;82.50
9193;DHT22;4631;49.296;10.560;2023-05-29T12:48:44;26.50;81.50
9193;DHT22;4631;49.296;10.560;2023-05-29T12:51:11;26.60;83.70
9193;DHT22;4631;49.296;10.560;2023-05-29T12:53:37;26.70;81.90
9193;DHT22;4631;49.296;10.560;2023-05-29T12:56:04;27.00;82.40
9193;DHT22;4631;49.296;10.560;2023-05-29T12:58:32;27.10;80.70
9193;DHT22;4631;49.296;10.560;2023-05-29T13:00:59;27.20;82.70
9193;DHT22;4631;49.296;10.560;2023-05-29T13:03:27;26.90;80.70
9193;DHT22;4631;49.296;10.560;2023-05-29T13:05:53;27.00;84.10
9193;DHT22;4631;49.296;10.560;2023-05-29T13:08:20;27.20;81.30
9193;DHT22;4631;49.296;10.560;2023-05-29T13:10:47;27.40;80.10
9193;DHT22;4631;49.296;10.560;2023-05-29T13:13:14;27.60;78.70
9193;DHT22;4631;49.296;10.560;2023-05-29T13:15:48;27.40;76.80
9193;DHT22;4631;49.296;10.560;2023-05-29T13:18:14;27.60;80.00
9193;DHT22;4631;49.296;10.560;2023-05-29T13:20:41;27.70;76.80
9193;DHT22;4631;49.296;10.560;2023-05-29T13:23:08;27.70;78.80
9193;DHT22;4631;49.296;10.560;2023-05-29T13:25:35;27.80;79.00
9193;DHT22;4631;49.296;10.560;2023-05-29T13:28:01;27.90;77.20
9193;DHT22;4631;49.296;10.560;2023-05-29T13:30:28;27.80;76.10
9193;DHT22;4631;49.296;10.560;2023-05-29T13:32:56;27.70;76.20
9193;DHT22;4631;49.296;10.560;2023-05-29T13:35:23;27.70;76.80
9193;DHT22;4631;49.296;10.560;2023-05-29T13:37:49;27.40;76.70
9193;DHT22;4631;49.296;10.560;2023-05-29T13:40:16;27.20;76.00
9193;DHT22;4631;49.296;10.560;2023-05-29T13:45:46;27.40;78.60
9193;DHT22;4631;49.296;10.560;2023-05-29T13:48:14;27.90;74.70
9193;DHT22;4631;49.296;10.560;2023-05-29T13:50:40;28.00;75.90
9193;DHT22;4631;49.296;10.560;2023-05-29T13:53:07;28.00;77.00
9193;DHT22;4631;49.296;10.560;2023-05-29T13:55:34;28.20;75.20
9193;DHT22;4631;49.296;10.560;2023-05-29T13:58:00;28.40;71.80
9193;DHT22;4631;49.296;10.560;2023-05-29T14:00:27;28.70;72.30
9193;DHT22;4631;49.296;10.560;2023-05-29T14:02:54;28.90;72.20
9193;DHT22;4631;49.296;10.560;2023-05-29T14:05:22;29.20;72.10
9193;DHT22;4631;49.296;10.560;2023-05-29T14:07:49;29.30;70.80
9193;DHT22;4631;49.296;10.560;2023-05-29T14:10:16;29.10;71.10
9193;DHT22;4631;49.296;10.560;2023-05-29T14:12:43;28.80;69.80
9193;DHT22;4631;49.296;10.560;2023-05-29T14:18:13;28.60;73.30
9193;DHT22;4631;49.296;10.560;2023-05-29T14:20:41;28.30;68.50
9193;DHT22;4631;49.296;10.560;2023-05-29T14:23:14;28.40;67.90
9193;DHT22;4631;49.296;10.560;2023-05-29T14:25:41;28.50;70.60
9193;DHT22;4631;49.296;10.560;2023-05-29T14:52:34;28.90;70.60
9193;DHT22;4631;49.296;10.560;2023-05-29T14:55:01;28.90;67.50
9193;DHT22;4631;49.296;10.560;2023-05-29T14:57:28;28.90;69.40
9193;DHT22;4631;49.296;10.560;2023-05-29T14:59:55;29.10;68.50
9193;DHT22;4631;49.296;10.560;2023-05-29T15:02:23;29.40;69.00
9193;DHT22;4631;49.296;10.560;2023-05-29T15:04:50;29.70;66.60
9193;DHT22;4631;49.296;10.560;2023-05-29T15:07:17;30.00;66.70
9193;DHT22;4631;49.296;10.560;2023-05-29T15:09:46;30.00;63.50
9193;DHT22;4631;49.296;10.560;2023-05-29T15:12:12;29.80;63.60
9193;DHT22;4631;49.296;10.560;2023-05-29T15:14:39;29.50;62.00
9193;DHT22;4631;49.296;10.560;2023-05-29T15:17:05;29.40;65.50
9193;DHT22;4631;49.296;10.560;2023-05-29T15:19:34;29.40;67.30
9193;DHT22;4631;49.296;10.560;2023-05-29T15:22:01;29.60;67.80
9193;DHT22;4631;49.296;10.560;2023-05-29T15:24:27;29.60;65.70
9193;DHT22;4631;49.296;10.560;2023-05-29T15:26:55;29.60;65.10
9193;DHT22;4631;49.296;10.560;2023-05-29T15:29:22;29.50;66.40
9193;DHT22;4631;49.296;10.560;2023-05-29T15:31:48;28.90;66.30
9193;DHT22;4631;49.296;10.560;2023-05-29T15:34:15;29.10;68.70
9193;DHT22;4631;49.296;10.560;2023-05-29T15:36:42;29.00;66.20
9193;DHT22;4631;49.296;10.560;2023-05-29T15:39:08;28.70;67.60
9193;DHT22;4631;49.296;10.560;2023-05-29T15:41:35;28.70;68.00
9193;DHT22;4631;49.296;10.560;2023-05-29T15:44:03;28.60;67.80
9193;DHT22;4631;49.296;10.560;2023-05-29T15:46:30;28.60;67.90
9193;DHT22;4631;49.296;10.560;2023-05-29T15:48:57;28.70;67.70
9193;DHT22;4631;49.296;10.560;2023-05-29T15:51:24;28.60;68.20
9193;DHT22;4631;49.296;10.560;2023-05-29T15:53:50;28.40;68.50
9193;DHT22;4631;49.296;10.560;2023-05-29T15:56:17;28.50;68.90
9193;DHT22;4631;49.296;10.560;2023-05-29T15:58:44;28.70;68.70
9193;DHT22;4631;49.296;10.560;2023-05-29T16:01:12;28.80;67.80
9193;DHT22;4631;49.296;10.560;2023-05-29T16:03:38;28.60;68.50
9193;DHT22;4631;49.296;10.560;2023-05-29T16:06:05;28.30;67.70
9193;DHT22;4631;49.296;10.560;2023-05-29T16:08:32;28.10;68.50
9193;DHT22;4631;49.296;10.560;2023-05-29T16:10:59;28.10;68.00
9193;DHT22;4631;49.296;10.560;2023-05-29T16:13:26;28.00;68.70
9193;DHT22;4631;49.296;10.560;2023-05-29T16:15:55;28.10;68.90
9193;DHT22;4631;49.296;10.560;2023-05-29T16:18:23;28.10;68.70
9193;DHT22;4631;49.296;10.560;2023-05-29T16:20:52;28.20;68.80
9193;DHT22;4631;49.296;10.560;2023-05-29T16:23:19;28.30;67.40